Current Weather

Al Ain Intl

Al Ain Intl, United Arab Emirates (OMAL)

Report from: Monday, July 22, 2024 10:00 AM UTC
Current time: Monday, July 22, 2024 10:56 AM UTC

Nearby weather – Weather history – Daily summaries
Weather forecast

Temperature44.0°C (111.2°F)
Heat index46.3°C (115.3°F)
Dew point17.0°C (62.6°F)
Winds 5 kts (2.6 m/s, 5.8 mph) Vrb
Winds variableWinds variable from Southeast (130°) to West-Northwest (300°)
Visibility5 mi. (8 km)
Altimeter29.44 in.Hg (997 mB)
Relative humidity21 %
Density altitude4,040 ft. (1,231 m)
Flight conditions Marginal Visual Meteorological Conditions
Raw dataOMAL 221000Z 25005KT 130V300 8000 NSC 44/17 Q0997 BECMG 31012KT
An error has occurred. This application may no longer respond until reloaded. Reload 🗙